• Join FlightAware (Why Join?)
  • Login
  • US Flag 
05:24AM EST


 

Airport Tracker/Info


-or-


 

Live Flight TrackerFlight Track Log ✈ MTN8304 ✈ 21-Dec-2012 ✈ KEWR - KBWI

Flight Track Log - Related Links

Times and Time Zones

All times are in EST time to prevent confusion due to time zone crossing. See the MTN8304 flight status page for this flight to view local times or setup timezone preferences in your user account.

Time Position Orientation Groundspeed Altitude Reporting Facility
EST Latitude Longitude Course Direction KTS MPH feet Rate Location/Type
06:39AM 40.6833 -74.2167 270° West 99 114 1,500  Level New York TRACON
06:40AM 40.6667 -74.2500 237° Southwest 95 109 2,100 600 Climbing New York TRACON
06:41AM 40.6667 -74.2833 270° West 110 127 2,800 780 Climbing New York TRACON
06:42AM 40.6500 -74.3167 237° Southwest 86 99 3,700 600 Climbing New York TRACON
06:43AM 40.6500 -74.3500 270° West 109 125 4,100 180 Climbing New York TRACON
06:44AM 40.6333 -74.4247 270° West  Level FlightAware Approximate
06:44AM 40.6333 -74.4000 246° West 151 174 4,100  Level New York TRACON
06:45AM 40.6333 -74.4500 270° West 145 167 4,900 780 Climbing New York TRACON
06:46AM 40.6333 -74.5000 270° West 105 121 5,700 360 Climbing New York TRACON
06:48AM 40.6167 -74.5833 255° West 128 147 6,100 120 Climbing New York TRACON
06:49AM 40.6000 -74.6333 246° West 135 155 6,100  Level New York TRACON
06:50AM 40.6000 -74.6667 270° West 135 155 6,100  Level New York TRACON
06:51AM 40.5833 -74.7167 246° West 133 153 6,100  Level New York TRACON
06:52AM 40.5833 -74.7667 270° West 157 181 6,100  Level New York TRACON
06:53AM 40.5833 -74.8333 270° West 152 175 6,100  Level New York TRACON
06:54AM 40.5667 -74.8833 246° West 152 175 6,100  Level New York TRACON
06:55AM 40.5667 -74.9333 270° West 153 176 6,100  Level New York TRACON
06:56AM 40.5667 -75.0000 270° West 168 193 6,100  Level New York TRACON
06:57AM 40.5500 -75.0667 252° West 168 193 6,100  Level New York TRACON
06:58AM 40.5500 -75.1167 270° West 160 184 6,100  Level New York TRACON
06:59AM 40.5500 -75.1667 270° West 167 192 6,100  Level New York TRACON
07:00AM 40.5333 -75.2333 252° West 160 184 6,100  Level New York TRACON
07:00AM 40.5167 -75.2833 246° West 157 181 6,100  Level New York TRACON
07:02AM 40.5167 -75.3500 270° West 159 183 6,100  Level New York TRACON
07:03AM 40.5000 -75.4000 246° West 154 177 6,100 -60 Level New York TRACON
07:04AM 40.5000 -75.4500 270° West 149 171 6,000  Descending New York TRACON
07:04AM 40.4833 -75.5000 246° West 147 169 6,100  Climbing New York TRACON
07:05AM 40.4833 -75.5167 270° West 147 169 6,100  Level New York TRACON
07:07AM 40.4833 -75.5167 37° Northeast 147 169 6,100  Level New York TRACON
07:09AM 40.4833 -75.5167 37° Northeast 147 169 6,100  Level New York TRACON
07:11AM 40.4833 -75.5167 37° Northeast 147 169 6,100  Level New York TRACON
07:13AM 40.4833 -75.5167 37° Northeast 147 169 6,100  Level New York TRACON
07:15AM 40.4833 -75.5167 37° Northeast 147 169 6,100  Level New York TRACON
07:17AM 40.4833 -75.5167 37° Northeast 147 169 6,100  Level New York TRACON
07:19AM 40.4833 -75.5167 37° Northeast 147 169 6,100  Level New York TRACON
07:21AM 40.4833 -75.5167 37° Northeast 147 169 6,100  Level New York TRACON
07:23AM 40.4833 -75.5167 37° Northeast 147 169 6,100  Level New York TRACON
07:25AM 40.4833 -75.5167 37° Northeast 147 169 6,100 -480 Level New York TRACON
07:27AM 39.8833 -76.3333 226° Southwest 174 200 4,400 -600 Descending Potomac TRACON
07:29AM 39.8000 -76.3667 197° South 168 193 4,000 -180 Descending Potomac TRACON
07:30AM 39.7500 -76.4000 207° Southwest 161 185 4,000  Level Potomac TRACON
07:32AM 39.6667 -76.4333 197° South 155 178 4,000 480 Level Potomac TRACON
07:34AM 40.4833 -75.5167 40° Northeast 147 169 6,100  Climbing New York TRACON
07:35AM 39.5500 -76.4833 219° Southwest 161 185 4,000 -1,440 Descending Potomac TRACON
07:36AM 39.5000 -76.5000 194° South 172 198 3,700 -420 Descending Potomac TRACON
07:37AM 39.4500 -76.5000 180° South 182 209 3,200 -420 Descending Potomac TRACON
07:38AM 39.4167 -76.5167 201° Southwest 181 208 3,000 -120 Descending Potomac TRACON
07:39AM 39.3667 -76.5333 194° South 169 194 3,000  Level Potomac TRACON
07:40AM 39.3167 -76.5333 180° South 167 192 3,000 -240 Level Potomac TRACON
07:41AM 39.2667 -76.5333 180° South 187 215 2,600 -480 Descending Potomac TRACON
07:42AM 39.2333 -76.5167 159° South 185 213 2,100 -420 Descending Potomac TRACON
07:43AM 39.1833 -76.5167 180° South 177 204 1,900 -60 Descending Potomac TRACON
07:44AM 39.1333 -76.5333 194° South 148 170 2,000  Climbing Potomac TRACON
07:45AM 39.1167 -76.5667 237° Southwest 140 161 2,000 -120 Level Potomac TRACON
07:46AM 39.1333 -76.6000 303° West 127 146 1,800 -660 Descending Potomac TRACON
07:47AM 39.1500 -76.6333 303° West 148 170 700 1,620 Descending Potomac TRACON
07:48AM 40.4833 -75.5167 32° Northeast 147 169 6,100 1,440 Climbing New York TRACON
07:50AM 40.4833 -75.5167 37° Northeast 147 169 6,100  Level New York TRACON
07:52AM 40.4833 -75.5167 37° Northeast 147 169 6,100  Level New York TRACON
07:54AM 40.4833 -75.5167 37° Northeast 147 169 6,100  Level New York TRACON
07:56AM 40.4833 -75.5167 37° Northeast 147 169 6,100  Level New York TRACON
07:58AM 40.4833 -75.5167 37° Northeast 147 169 6,100  Level New York TRACON
08:00AM 40.4833 -75.5167 37° Northeast 147 169 6,100  Level New York TRACON
08:02AM 40.4833 -75.5167 37° Northeast 147 169 6,100  Level New York TRACON
08:04AM 40.4833 -75.5167 37° Northeast 147 169 6,100  Level New York TRACON
08:06AM 40.4833 -75.5167 37° Northeast 147 169 6,100  Level New York TRACON
08:08AM 40.4833 -75.5167 37° Northeast 147 169 6,100  Level New York TRACON
08:10AM 40.4833 -75.5167 37° Northeast 147 169 6,100  Level New York TRACON
08:12AM 40.4833 -75.5167 37° Northeast 147 169 6,100  Level New York TRACON
08:14AM 40.4833 -75.5167 37° Northeast 147 169 6,100  Level New York TRACON
08:16AM 40.4833 -75.5167 37° Northeast 147 169 6,100  Level New York TRACON
08:18AM 40.4833 -75.5167 37° Northeast 147 169 6,100  Level New York TRACON
08:20AM 40.4833 -75.5167 37° Northeast 147 169 6,100  Level New York TRACON
08:22AM 40.4833 -75.5167 37° Northeast 147 169 6,100  Level New York TRACON
08:25AM 40.4833 -75.5167 37° Northeast 147 169 6,100  Level New York TRACON
08:27AM 40.4833 -75.5167 37° Northeast 147 169 6,100  Level New York TRACON
08:29AM 40.4833 -75.5167 37° Northeast 147 169 6,100  Level New York TRACON
08:30AM 40.4833 -75.5167 37° Northeast 147 169 6,100  Level New York TRACON
08:32AM 40.4833 -75.5167 37° Northeast 147 169 6,100  Level New York TRACON
08:34AM 40.4833 -75.5167 37° Northeast 147 169 6,100  Level New York TRACON
08:36AM 40.4833 -75.5167 37° Northeast 147 169 6,100  Level New York TRACON
08:38AM 40.4833 -75.5167 37° Northeast 147 169 6,100  Level New York TRACON
08:40AM 40.4833 -75.5167 37° Northeast 147 169 6,100  Level New York TRACON
08:42AM 40.4833 -75.5167 37° Northeast 147 169 6,100  Level New York TRACON
08:44AM 40.4833 -75.5167 37° Northeast 147 169 6,100  Level New York TRACON
08:46AM 40.4833 -75.5167 37° Northeast 147 169 6,100  Level New York TRACON
08:48AM 40.4833 -75.5167 37° Northeast 147 169 6,100  Level New York TRACON
08:50AM 40.4833 -75.5167 37° Northeast 147 169 6,100  Level New York TRACON
08:52AM 40.4833 -75.5167 37° Northeast 147 169 6,100  Level New York TRACON
08:54AM 40.4833 -75.5167 37° Northeast 147 169 6,100  Level New York TRACON
08:56AM 40.4833 -75.5167 37° Northeast 147 169 6,100  Level New York TRACON
08:58AM 40.4833 -75.5167 37° Northeast 147 169 6,100  Level New York TRACON
09:01AM 40.4833 -75.5167 37° Northeast 147 169 6,100  Level New York TRACON
09:02AM 40.4833 -75.5167 37° Northeast 147 169 6,100  Level New York TRACON
09:04AM 40.4833 -75.5167 37° Northeast 147 169 6,100  Level New York TRACON
09:06AM 40.4833 -75.5167 37° Northeast 147 169 6,100  Level New York TRACON
09:08AM 40.4833 -75.5167 37° Northeast 147 169 6,100  Level New York TRACON
09:10AM 40.4833 -75.5167 37° Northeast 147 169 6,100  Level New York TRACON
09:12AM 40.4833 -75.5167 37° Northeast 147 169 6,100  Level New York TRACON
09:14AM 40.4833 -75.5167 37° Northeast 147 169 6,100  Level New York TRACON
09:16AM 40.4833 -75.5167 37° Northeast 147 169 6,100  Level New York TRACON
09:18AM 40.4833 -75.5167 37° Northeast 147 169 6,100  Level New York TRACON
09:20AM 40.4833 -75.5167 37° Northeast 147 169 6,100  Level New York TRACON
09:22AM 40.4833 -75.5167 37° Northeast 147 169 6,100  Level New York TRACON
09:24AM 40.4833 -75.5167 37° Northeast 147 169 6,100  Level New York TRACON
09:26AM 40.4833 -75.5167 37° Northeast 147 169 6,100  Level New York TRACON
09:28AM 40.4833 -75.5167 37° Northeast 147 169 6,100  Level New York TRACON
09:29AM 40.4833 -75.5167 270° West 147 169 6,100  Level New York TRACON
09:30AM 40.4502 -75.5465 270° West  Level Estimated
09:32AM 40.4502 -75.5465 270° West  Level Estimated
09:32AM 40.4833 -75.5167 270° West 147 169 6,100  Level New York TRACON
09:34AM 40.4833 -75.5167 37° Northeast 147 169 6,100  Level New York TRACON
09:36AM 40.4833 -75.5167 37° Northeast 147 169 6,100  Level New York TRACON
09:38AM 40.4470 -75.5494 270° West  Level Estimated
09:38AM 40.4833 -75.5167 270° West 147 169 6,100  Level New York TRACON
09:40AM 40.4833 -75.5167 37° Northeast 147 169 6,100  Level New York TRACON
09:43AM 40.4833 -75.5167 37° Northeast 147 169 6,100  Level New York TRACON
09:44AM 40.4833 -75.5167 37° Northeast 147 169 6,100  Level New York TRACON
09:46AM 40.4833 -75.5167 37° Northeast 147 169 6,100  Level New York TRACON
09:49AM 40.4833 -75.5167 37° Northeast 147 169 6,100  Level New York TRACON